sensor_id;sensor_type;location;lat;lon;timestamp;pressure;altitude;pressure_sealevel;temperature;humidity
69318;BME280;56457;52.190;4.440;2023-05-19T00:00:50;102911.00;;;10.33;100.00
69318;BME280;56457;52.190;4.440;2023-05-19T00:01:50;102903.97;;;10.32;100.00
69318;BME280;56457;52.190;4.440;2023-05-19T00:02:51;102911.00;;;10.33;100.00
69318;BME280;56457;52.190;4.440;2023-05-19T00:03:52;102904.88;;;10.32;100.00
69318;BME280;56457;52.190;4.440;2023-05-19T00:04:53;102902.28;;;10.34;100.00
69318;BME280;56457;52.190;4.440;2023-05-19T00:05:53;102913.63;;;10.33;100.00
69318;BME280;56457;52.190;4.440;2023-05-19T00:06:55;102910.03;;;10.31;100.00
69318;BME280;56457;52.190;4.440;2023-05-19T00:07:58;102909.16;;;10.30;100.00
69318;BME280;56457;52.190;4.440;2023-05-19T00:09:00;102901.34;;;10.32;100.00
69318;BME280;56457;52.190;4.440;2023-05-19T00:10:01;102912.63;;;10.29;100.00
69318;BME280;56457;52.190;4.440;2023-05-19T00:11:01;102903.84;;;10.27;100.00
69318;BME280;56457;52.190;4.440;2023-05-19T00:12:02;102905.56;;;10.25;100.00
69318;BME280;56457;52.190;4.440;2023-05-19T00:13:02;102905.38;;;10.20;100.00
69318;BME280;56457;52.190;4.440;2023-05-19T00:14:03;102901.00;;;10.19;100.00
69318;BME280;56457;52.190;4.440;2023-05-19T00:15:05;102907.97;;;10.19;100.00
69318;BME280;56457;52.190;4.440;2023-05-19T00:16:05;102917.53;;;10.17;100.00
69318;BME280;56457;52.190;4.440;2023-05-19T00:17:06;102910.50;;;10.16;100.00
69318;BME280;56457;52.190;4.440;2023-05-19T00:18:06;102914.84;;;10.14;100.00
69318;BME280;56457;52.190;4.440;2023-05-19T00:19:08;102910.53;;;10.17;100.00
69318;BME280;56457;52.190;4.440;2023-05-19T00:20:09;102902.75;;;10.19;100.00
69318;BME280;56457;52.190;4.440;2023-05-19T00:21:11;102907.97;;;10.19;100.00
69318;BME280;56457;52.190;4.440;2023-05-19T00:22:11;102903.66;;;10.21;100.00
69318;BME280;56457;52.190;4.440;2023-05-19T00:23:12;102901.81;;;10.18;100.00
69318;BME280;56457;52.190;4.440;2023-05-19T00:24:12;102908.78;;;10.16;100.00
69318;BME280;56457;52.190;4.440;2023-05-19T00:25:13;102899.97;;;10.14;100.00
69318;BME280;56457;52.190;4.440;2023-05-19T00:26:13;102901.75;;;10.15;100.00
69318;BME280;56457;52.190;4.440;2023-05-19T00:27:14;102911.31;;;10.13;100.00
69318;BME280;56457;52.190;4.440;2023-05-19T00:28:14;102911.22;;;10.10;100.00
69318;BME280;56457;52.190;4.440;2023-05-19T00:29:14;102912.00;;;10.06;100.00
69318;BME280;56457;52.190;4.440;2023-05-19T00:30:18;102906.69;;;10.05;100.00
69318;BME280;56457;52.190;4.440;2023-05-19T00:31:18;102907.66;;;10.07;100.00
69318;BME280;56457;52.190;4.440;2023-05-19T00:32:19;102906.75;;;10.06;100.00
69318;BME280;56457;52.190;4.440;2023-05-19T00:33:19;102920.78;;;10.08;100.00
69318;BME280;56457;52.190;4.440;2023-05-19T00:34:19;102910.31;;;10.08;100.00
69318;BME280;56457;52.190;4.440;2023-05-19T00:35:20;102916.44;;;10.09;100.00
69318;BME280;56457;52.190;4.440;2023-05-19T00:36:20;102904.94;;;10.04;100.00
69318;BME280;56457;52.190;4.440;2023-05-19T00:37:21;102918.97;;;10.06;100.00
69318;BME280;56457;52.190;4.440;2023-05-19T00:38:22;102911.94;;;10.05;100.00
69318;BME280;56457;52.190;4.440;2023-05-19T00:39:22;102911.91;;;10.03;100.00
69318;BME280;56457;52.190;4.440;2023-05-19T00:40:23;102915.38;;;10.02;100.00
69318;BME280;56457;52.190;4.440;2023-05-19T00:41:24;102914.50;;;10.02;100.00
69318;BME280;56457;52.190;4.440;2023-05-19T00:42:25;102917.09;;;10.00;100.00
69318;BME280;56457;52.190;4.440;2023-05-19T00:43:26;102917.13;;;10.02;100.00
69318;BME280;56457;52.190;4.440;2023-05-19T00:44:26;102912.78;;;10.04;100.00
69318;BME280;56457;52.190;4.440;2023-05-19T00:45:26;102920.59;;;10.01;100.00
69318;BME280;56457;52.190;4.440;2023-05-19T00:46:27;102919.63;;;9.98;100.00
69318;BME280;56457;52.190;4.440;2023-05-19T00:47:27;102916.09;;;9.96;100.00
69318;BME280;56457;52.190;4.440;2023-05-19T00:48:27;102915.13;;;9.93;100.00
69318;BME280;56457;52.190;4.440;2023-05-19T00:49:28;102910.72;;;9.92;100.00
69318;BME280;56457;52.190;4.440;2023-05-19T00:50:28;102914.22;;;9.92;100.00
69318;BME280;56457;52.190;4.440;2023-05-19T00:51:28;102915.97;;;9.92;100.00
69318;BME280;56457;52.190;4.440;2023-05-19T00:52:30;102908.94;;;9.91;100.00
69318;BME280;56457;52.190;4.440;2023-05-19T00:53:31;102914.16;;;9.89;100.00
69318;BME280;56457;52.190;4.440;2023-05-19T00:54:32;102912.28;;;9.85;100.00
69318;BME280;56457;52.190;4.440;2023-05-19T00:55:33;102916.63;;;9.85;100.00
69318;BME280;56457;52.190;4.440;2023-05-19T00:56:35;102908.88;;;9.88;100.00
69318;BME280;56457;52.190;4.440;2023-05-19T00:57:35;102904.41;;;9.85;100.00
69318;BME280;56457;52.190;4.440;2023-05-19T00:58:36;102913.97;;;9.83;100.00
69318;BME280;56457;52.190;4.440;2023-05-19T00:59:38;102907.78;;;9.81;100.00
69318;BME280;56457;52.190;4.440;2023-05-19T01:00:38;102909.59;;;9.82;100.00
69318;BME280;56457;52.190;4.440;2023-05-19T01:01:39;102906.16;;;9.85;100.00
69318;BME280;56457;52.190;4.440;2023-05-19T01:02:39;102908.88;;;9.88;100.00
69318;BME280;56457;52.190;4.440;2023-05-19T01:03:40;102910.69;;;9.90;100.00
69318;BME280;56457;52.190;4.440;2023-05-19T01:04:41;102913.22;;;9.87;100.00
69318;BME280;56457;52.190;4.440;2023-05-19T01:05:42;102915.78;;;9.86;100.00
69318;BME280;56457;52.190;4.440;2023-05-19T01:06:46;102914.94;;;9.87;100.00
69318;BME280;56457;52.190;4.440;2023-05-19T01:07:47;102905.41;;;9.89;100.00
69318;BME280;56457;52.190;4.440;2023-05-19T01:08:52;102913.28;;;9.89;100.00
69318;BME280;56457;52.190;4.440;2023-05-19T01:09:53;102909.66;;;9.85;100.00
69318;BME280;56457;52.190;4.440;2023-05-19T01:10:53;102904.38;;;9.84;100.00
69318;BME280;56457;52.190;4.440;2023-05-19T01:11:53;102906.19;;;9.86;100.00
69318;BME280;56457;52.190;4.440;2023-05-19T01:12:54;102909.81;;;9.90;100.00
69318;BME280;56457;52.190;4.440;2023-05-19T01:13:54;102904.34;;;9.82;100.00
69318;BME280;56457;52.190;4.440;2023-05-19T01:14:56;102901.72;;;9.82;100.00
69318;BME280;56457;52.190;4.440;2023-05-19T01:15:58;102901.63;;;9.79;100.00
69318;BME280;56457;52.190;4.440;2023-05-19T01:17:03;102901.59;;;9.78;100.00
69318;BME280;56457;52.190;4.440;2023-05-19T01:18:07;102899.88;;;9.80;100.00
69318;BME280;56457;52.190;4.440;2023-05-19T01:21:44;102901.63;;;9.79;100.00
69318;BME280;56457;52.190;4.440;2023-05-19T01:23:57;102897.22;;;9.78;100.00
69318;BME280;56457;52.190;4.440;2023-05-19T01:30:55;102893.72;;;9.78;100.00
69318;BME280;56457;52.190;4.440;2023-05-19T01:31:56;102895.34;;;9.74;100.00
69318;BME280;56457;52.190;4.440;2023-05-19T01:32:59;102879.69;;;9.76;100.00
69318;BME280;56457;52.190;4.440;2023-05-19T01:34:00;102882.25;;;9.74;100.00
69318;BME280;56457;52.190;4.440;2023-05-19T01:35:03;102883.13;;;9.75;100.00
69318;BME280;56457;52.190;4.440;2023-05-19T01:36:04;102889.19;;;9.72;100.00
69318;BME280;56457;52.190;4.440;2023-05-19T01:43:47;102895.97;;;9.64;100.00
69318;BME280;56457;52.190;4.440;2023-05-19T01:44:48;102881.19;;;9.67;100.00
69318;BME280;56457;52.190;4.440;2023-05-19T01:45:48;102885.66;;;9.70;100.00
69318;BME280;56457;52.190;4.440;2023-05-19T01:46:49;102887.44;;;9.71;100.00
69318;BME280;56457;52.190;4.440;2023-05-19T01:47:52;102880.41;;;9.70;100.00
69318;BME280;56457;52.190;4.440;2023-05-19T01:48:52;102883.75;;;9.64;100.00
69318;BME280;56457;52.190;4.440;2023-05-19T01:49:53;102884.69;;;9.68;100.00
69318;BME280;56457;52.190;4.440;2023-05-19T01:50:54;102885.59;;;9.68;100.00
69318;BME280;56457;52.190;4.440;2023-05-19T01:51:56;102883.81;;;9.67;100.00
69318;BME280;56457;52.190;4.440;2023-05-19T01:52:56;102884.78;;;9.69;100.00
69318;BME280;56457;52.190;4.440;2023-05-19T01:53:57;102876.84;;;9.68;100.00
69318;BME280;56457;52.190;4.440;2023-05-19T01:54:57;102880.06;;;9.58;100.00
69318;BME280;56457;52.190;4.440;2023-05-19T01:55:57;102869.59;;;9.58;100.00
69318;BME280;56457;52.190;4.440;2023-05-19T02:00:45;102880.78;;;9.52;100.00
69318;BME280;56457;52.190;4.440;2023-05-19T02:01:52;102882.53;;;9.53;100.00
69318;BME280;56457;52.190;4.440;2023-05-19T02:04:50;102883.59;;;9.60;100.00
69318;BME280;56457;52.190;4.440;2023-05-19T02:07:50;102883.44;;;9.54;100.00
69318;BME280;56457;52.190;4.440;2023-05-19T02:10:10;102880.84;;;9.55;100.00
69318;BME280;56457;52.190;4.440;2023-05-19T02:11:14;102875.59;;;9.55;100.00
69318;BME280;56457;52.190;4.440;2023-05-19T02:12:24;102879.88;;;9.52;100.00
69318;BME280;56457;52.190;4.440;2023-05-19T02:13:28;102880.78;;;9.52;100.00
69318;BME280;56457;52.190;4.440;2023-05-19T02:14:34;102882.41;;;9.49;100.00
69318;BME280;56457;52.190;4.440;2023-05-19T02:15:39;102879.78;;;9.49;100.00
69318;BME280;56457;52.190;4.440;2023-05-19T02:16:42;102879.00;;;9.51;100.00
69318;BME280;56457;52.190;4.440;2023-05-19T02:17:44;102875.53;;;9.52;100.00
69318;BME280;56457;52.190;4.440;2023-05-19T02:18:50;102874.50;;;9.47;100.00
69318;BME280;56457;52.190;4.440;2023-05-19T02:19:51;102877.06;;;9.44;100.00
69318;BME280;56457;52.190;4.440;2023-05-19T02:20:51;102875.41;;;9.49;100.00
69318;BME280;56457;52.190;4.440;2023-05-19T02:21:51;102874.56;;;9.50;100.00
69318;BME280;56457;52.190;4.440;2023-05-19T02:22:51;102876.31;;;9.50;100.00
69318;BME280;56457;52.190;4.440;2023-05-19T02:23:52;102877.19;;;9.50;100.00
69318;BME280;56457;52.190;4.440;2023-05-19T02:24:52;102871.97;;;9.50;100.00
69318;BME280;56457;52.190;4.440;2023-05-19T02:25:52;102871.97;;;9.50;100.00
69318;BME280;56457;52.190;4.440;2023-05-19T02:26:53;102874.69;;;9.53;100.00
69318;BME280;56457;52.190;4.440;2023-05-19T02:27:53;102872.13;;;9.56;100.00
69318;BME280;56457;52.190;4.440;2023-05-19T02:28:53;102873.78;;;9.53;100.00
69318;BME280;56457;52.190;4.440;2023-05-19T02:29:54;102868.41;;;9.48;100.00
69318;BME280;56457;52.190;4.440;2023-05-19T02:30:54;102875.38;;;9.48;100.00
69318;BME280;56457;52.190;4.440;2023-05-19T02:31:54;102866.47;;;9.41;100.00
69318;BME280;56457;52.190;4.440;2023-05-19T02:32:55;102865.72;;;9.45;100.00
69318;BME280;56457;52.190;4.440;2023-05-19T02:33:55;102869.19;;;9.44;100.00
69318;BME280;56457;52.190;4.440;2023-05-19T02:34:55;102871.88;;;9.47;100.00
69318;BME280;56457;52.190;4.440;2023-05-19T02:35:56;102872.72;;;9.46;100.00
69318;BME280;56457;52.190;4.440;2023-05-19T02:36:56;102870.16;;;9.48;100.00
69318;BME280;56457;52.190;4.440;2023-05-19T02:37:56;102877.16;;;9.49;100.00
69318;BME280;56457;52.190;4.440;2023-05-19T02:38:57;102864.88;;;9.46;100.00
69318;BME280;56457;52.190;4.440;2023-05-19T02:40:00;102866.66;;;9.47;100.00
69318;BME280;56457;52.190;4.440;2023-05-19T02:41:00;102865.56;;;9.40;100.00
69318;BME280;56457;52.190;4.440;2023-05-19T02:42:00;102861.94;;;9.35;100.00
69318;BME280;56457;52.190;4.440;2023-05-19T02:43:00;102863.63;;;9.33;100.00
69318;BME280;56457;52.190;4.440;2023-05-19T02:44:01;102861.94;;;9.35;100.00
69318;BME280;56457;52.190;4.440;2023-05-19T02:45:01;102861.03;;;9.35;100.00
69318;BME280;56457;52.190;4.440;2023-05-19T02:46:01;102854.88;;;9.33;100.00
69318;BME280;56457;52.190;4.440;2023-05-19T02:47:01;102860.81;;;9.27;100.00
69318;BME280;56457;52.190;4.440;2023-05-19T02:48:02;102859.94;;;9.27;100.00
69318;BME280;56457;52.190;4.440;2023-05-19T02:49:02;102859.84;;;9.24;100.00
69318;BME280;56457;52.190;4.440;2023-05-19T02:50:03;102858.06;;;9.23;100.00
69318;BME280;56457;52.190;4.440;2023-05-19T02:51:04;102864.16;;;9.22;100.00
69318;BME280;56457;52.190;4.440;2023-05-19T02:52:04;102858.91;;;9.22;100.00
69318;BME280;56457;52.190;4.440;2023-05-19T02:53:04;102857.91;;;9.18;100.00
69318;BME280;56457;52.190;4.440;2023-05-19T02:54:05;102861.38;;;9.17;100.00
69318;BME280;56457;52.190;4.440;2023-05-19T02:55:05;102857.88;;;9.16;100.00
69318;BME280;56457;52.190;4.440;2023-05-19T02:56:06;102858.63;;;9.12;100.00
69318;BME280;56457;52.190;4.440;2023-05-19T02:57:06;102862.97;;;9.12;100.00
69318;BME280;56457;52.190;4.440;2023-05-19T02:58:06;102860.31;;;9.10;100.00
69318;BME280;56457;52.190;4.440;2023-05-19T02:59:07;102859.53;;;9.13;100.00
69318;BME280;56457;52.190;4.440;2023-05-19T03:00:07;102861.31;;;9.14;100.00
69318;BME280;56457;52.190;4.440;2023-05-19T03:01:08;102854.34;;;9.14;100.00
69318;BME280;56457;52.190;4.440;2023-05-19T03:02:09;102858.53;;;9.09;100.00
69318;BME280;56457;52.190;4.440;2023-05-19T03:03:09;102853.19;;;9.06;100.00
69318;BME280;56457;52.190;4.440;2023-05-19T03:04:09;102860.22;;;9.07;100.00
69318;BME280;56457;52.190;4.440;2023-05-19T03:05:10;102863.66;;;9.06;100.00
69318;BME280;56457;52.190;4.440;2023-05-19T03:06:11;102860.09;;;9.03;100.00
69318;BME280;56457;52.190;4.440;2023-05-19T03:07:11;102855.63;;;9.00;100.00
69318;BME280;56457;52.190;4.440;2023-05-19T03:08:15;102860.84;;;9.00;100.00
69318;BME280;56457;52.190;4.440;2023-05-19T03:09:15;102859.09;;;8.99;100.00
69318;BME280;56457;52.190;4.440;2023-05-19T03:10:15;102856.47;;;8.99;100.00
69318;BME280;56457;52.190;4.440;2023-05-19T03:11:16;102858.19;;;8.99;100.00
69318;BME280;56457;52.190;4.440;2023-05-19T03:12:16;102856.47;;;8.99;100.00
69318;BME280;56457;52.190;4.440;2023-05-19T03:13:16;102857.28;;;8.97;100.00
69318;BME280;56457;52.190;4.440;2023-05-19T03:14:17;102856.28;;;8.93;100.00
69318;BME280;56457;52.190;4.440;2023-05-19T03:15:17;102849.28;;;8.92;100.00
69318;BME280;56457;52.190;4.440;2023-05-19T03:16:18;102857.97;;;8.91;100.00
69318;BME280;56457;52.190;4.440;2023-05-19T03:17:18;102850.97;;;8.90;100.00
69318;BME280;56457;52.190;4.440;2023-05-19T03:18:18;102850.97;;;8.90;100.00
69318;BME280;56457;52.190;4.440;2023-05-19T03:19:19;102847.50;;;8.91;100.00
69318;BME280;56457;52.190;4.440;2023-05-19T03:20:19;102848.44;;;8.93;100.00
69318;BME280;56457;52.190;4.440;2023-05-19T03:21:20;102848.38;;;8.92;100.00
69318;BME280;56457;52.190;4.440;2023-05-19T03:22:20;102847.50;;;8.91;100.00
69318;BME280;56457;52.190;4.440;2023-05-19T03:23:20;102845.72;;;8.90;100.00
69318;BME280;56457;52.190;4.440;2023-05-19T03:24:21;102857.97;;;8.91;100.00
69318;BME280;56457;52.190;4.440;2023-05-19T03:25:21;102857.88;;;8.88;100.00
69318;BME280;56457;52.190;4.440;2023-05-19T03:26:21;102857.78;;;8.85;100.00
69318;BME280;56457;52.190;4.440;2023-05-19T03:27:22;102853.38;;;8.84;100.00
69318;BME280;56457;52.190;4.440;2023-05-19T03:28:22;102858.59;;;8.82;100.00
69318;BME280;56457;52.190;4.440;2023-05-19T03:29:22;102852.44;;;8.82;100.00
69318;BME280;56457;52.190;4.440;2023-05-19T03:30:23;102849.78;;;8.80;100.00
69318;BME280;56457;52.190;4.440;2023-05-19T03:31:23;102850.72;;;8.82;100.00
69318;BME280;56457;52.190;4.440;2023-05-19T03:32:23;102855.97;;;8.82;100.00
69318;BME280;56457;52.190;4.440;2023-05-19T03:33:23;102860.25;;;8.80;100.00
69318;BME280;56457;52.190;4.440;2023-05-19T03:34:24;102855.91;;;8.81;100.00
69318;BME280;56457;52.190;4.440;2023-05-19T03:35:24;102858.44;;;8.78;100.00
69318;BME280;56457;52.190;4.440;2023-05-19T03:36:24;102863.72;;;8.79;100.00
69318;BME280;56457;52.190;4.440;2023-05-19T03:37:31;102854.09;;;8.78;100.00
69318;BME280;56457;52.190;4.440;2023-05-19T03:38:34;102853.19;;;8.78;100.00
69318;BME280;56457;52.190;4.440;2023-05-19T03:39:34;102855.81;;;8.78;100.00
69318;BME280;56457;52.190;4.440;2023-05-19T03:40:35;102852.34;;;8.79;100.00
69318;BME280;56457;52.190;4.440;2023-05-19T03:41:35;102852.34;;;8.79;100.00
69318;BME280;56457;52.190;4.440;2023-05-19T03:42:35;102849.66;;;8.76;100.00
69318;BME280;56457;52.190;4.440;2023-05-19T03:43:35;102848.69;;;8.74;100.00
69318;BME280;56457;52.190;4.440;2023-05-19T03:44:36;102849.53;;;8.73;100.00
69318;BME280;56457;52.190;4.440;2023-05-19T03:45:36;102845.19;;;8.73;100.00
69318;BME280;56457;52.190;4.440;2023-05-19T03:46:36;102848.66;;;8.72;100.00
69318;BME280;56457;52.190;4.440;2023-05-19T03:47:37;102846.03;;;8.72;100.00
69318;BME280;56457;52.190;4.440;2023-05-19T03:48:37;102853.88;;;8.72;100.00
69318;BME280;56457;52.190;4.440;2023-05-19T03:49:37;102855.69;;;8.75;100.00
69318;BME280;56457;52.190;4.440;2023-05-19T03:50:37;102848.66;;;8.72;100.00
69318;BME280;56457;52.190;4.440;2023-05-19T03:51:38;102846.84;;;8.70;100.00
69318;BME280;56457;52.190;4.440;2023-05-19T03:52:38;102855.44;;;8.66;100.00
69318;BME280;56457;52.190;4.440;2023-05-19T03:53:39;102852.16;;;8.73;100.00
69318;BME280;56457;52.190;4.440;2023-05-19T03:54:40;102853.16;;;8.76;100.00
69318;BME280;56457;52.190;4.440;2023-05-19T03:55:41;102852.19;;;8.74;100.00
69318;BME280;56457;52.190;4.440;2023-05-19T03:56:43;102856.59;;;8.75;100.00
69318;BME280;56457;52.190;4.440;2023-05-19T03:57:43;102854.72;;;8.71;100.00
69318;BME280;56457;52.190;4.440;2023-05-19T03:58:44;102858.19;;;8.70;100.00
69318;BME280;56457;52.190;4.440;2023-05-19T03:59:46;102855.69;;;8.75;100.00
69318;BME280;56457;52.190;4.440;2023-05-19T04:00:46;102856.59;;;8.75;100.00
69318;BME280;56457;52.190;4.440;2023-05-19T04:01:46;102851.31;;;8.74;100.00
69318;BME280;56457;52.190;4.440;2023-05-19T04:02:47;102861.06;;;8.78;100.00
69318;BME280;56457;52.190;4.440;2023-05-19T04:03:48;102856.69;;;8.78;100.00
69318;BME280;56457;52.190;4.440;2023-05-19T04:04:48;102859.28;;;8.77;100.00
69318;BME280;56457;52.190;4.440;2023-05-19T04:05:50;102861.06;;;8.78;100.00
69318;BME280;56457;52.190;4.440;2023-05-19T04:06:50;102859.31;;;8.78;100.00
69318;BME280;56457;52.190;4.440;2023-05-19T04:07:51;102859.41;;;8.81;100.00
69318;BME280;56457;52.190;4.440;2023-05-19T04:08:51;102861.06;;;8.78;100.00
69318;BME280;56457;52.190;4.440;2023-05-19T04:09:51;102862.78;;;8.77;100.00
69318;BME280;56457;52.190;4.440;2023-05-19T04:10:52;102858.31;;;8.75;100.00
69318;BME280;56457;52.190;4.440;2023-05-19T04:11:52;102857.41;;;8.73;100.00
69318;BME280;56457;52.190;4.440;2023-05-19T04:12:52;102867.81;;;8.71;100.00
69318;BME280;56457;52.190;4.440;2023-05-19T04:13:52;102865.25;;;8.73;100.00
69318;BME280;56457;52.190;4.440;2023-05-19T04:14:53;102863.50;;;8.73;100.00
69318;BME280;56457;52.190;4.440;2023-05-19T04:15:53;102861.78;;;8.74;100.00
69318;BME280;56457;52.190;4.440;2023-05-19T04:16:53;102870.47;;;8.73;100.00
69318;BME280;56457;52.190;4.440;2023-05-19T04:17:54;102864.34;;;8.72;100.00
69318;BME280;56457;52.190;4.440;2023-05-19T04:18:54;102867.00;;;8.74;100.00
69318;BME280;56457;52.190;4.440;2023-05-19T04:19:55;102870.59;;;8.76;100.00
69318;BME280;56457;52.190;4.440;2023-05-19T04:20:56;102865.41;;;8.77;100.00
69318;BME280;56457;52.190;4.440;2023-05-19T04:21:56;102867.97;;;8.76;100.00
69318;BME280;56457;52.190;4.440;2023-05-19T04:22:56;102867.06;;;8.75;100.00
69318;BME280;56457;52.190;4.440;2023-05-19T04:23:56;102867.06;;;8.75;100.00
69318;BME280;56457;52.190;4.440;2023-05-19T04:24:59;102869.63;;;8.74;100.00
69318;BME280;56457;52.190;4.440;2023-05-19T04:25:59;102873.94;;;8.72;100.00
69318;BME280;56457;52.190;4.440;2023-05-19T04:27:00;102873.94;;;8.72;100.00
69318;BME280;56457;52.190;4.440;2023-05-19T04:28:02;102877.41;;;8.71;100.00
69318;BME280;56457;52.190;4.440;2023-05-19T04:29:03;102878.34;;;8.73;100.00
69318;BME280;56457;52.190;4.440;2023-05-19T04:30:04;102873.97;;;8.73;100.00
69318;BME280;56457;52.190;4.440;2023-05-19T04:31:04;102876.59;;;8.73;100.00
69318;BME280;56457;52.190;4.440;2023-05-19T04:32:09;102875.88;;;8.77;100.00
69318;BME280;56457;52.190;4.440;2023-05-19T04:33:09;102870.63;;;8.77;100.00
69318;BME280;56457;52.190;4.440;2023-05-19T04:34:10;102871.53;;;8.78;100.00
69318;BME280;56457;52.190;4.440;2023-05-19T04:35:10;102872.41;;;8.78;100.00
69318;BME280;56457;52.190;4.440;2023-05-19T04:36:12;102871.59;;;8.81;100.00
69318;BME280;56457;52.190;4.440;2023-05-19T04:37:13;102876.84;;;8.81;100.00
69318;BME280;56457;52.190;4.440;2023-05-19T04:38:15;102873.50;;;8.85;100.00
69318;BME280;56457;52.190;4.440;2023-05-19T04:39:17;102868.28;;;8.86;100.00
69318;BME280;56457;52.190;4.440;2023-05-19T04:40:18;102870.94;;;8.88;100.00
69318;BME280;56457;52.190;4.440;2023-05-19T04:41:20;102868.34;;;8.88;100.00
69318;BME280;56457;52.190;4.440;2023-05-19T04:42:20;102873.56;;;8.88;100.00
69318;BME280;56457;52.190;4.440;2023-05-19T04:43:21;102876.19;;;8.88;100.00
69318;BME280;56457;52.190;4.440;2023-05-19T04:44:21;102879.66;;;8.87;100.00
69318;BME280;56457;52.190;4.440;2023-05-19T04:45:21;102879.66;;;8.87;100.00
69318;BME280;56457;52.190;4.440;2023-05-19T04:46:22;102878.81;;;8.88;100.00
69318;BME280;56457;52.190;4.440;2023-05-19T04:47:23;102878.00;;;8.89;100.00
69318;BME280;56457;52.190;4.440;2023-05-19T04:48:26;102874.53;;;8.90;100.00
69318;BME280;56457;52.190;4.440;2023-05-19T04:49:29;102875.38;;;8.89;100.00
69318;BME280;56457;52.190;4.440;2023-05-19T04:50:30;102876.28;;;8.91;100.00
69318;BME280;56457;52.190;4.440;2023-05-19T04:51:31;102872.06;;;8.95;100.00
69318;BME280;56457;52.190;4.440;2023-05-19T04:52:31;102875.56;;;8.95;100.00
69318;BME280;56457;52.190;4.440;2023-05-19T04:53:32;102874.75;;;8.98;100.00
69318;BME280;56457;52.190;4.440;2023-05-19T04:54:35;102876.53;;;8.99;100.00
69318;BME280;56457;52.190;4.440;2023-05-19T04:55:36;102878.31;;;9.00;100.00
69318;BME280;56457;52.190;4.440;2023-05-19T04:56:37;102875.75;;;9.01;100.00
69318;BME280;56457;52.190;4.440;2023-05-19T04:57:37;102878.50;;;9.06;100.00
69318;BME280;56457;52.190;4.440;2023-05-19T04:58:38;102882.06;;;9.08;100.00
69318;BME280;56457;52.190;4.440;2023-05-19T04:59:38;102882.91;;;9.07;100.00
69318;BME280;56457;52.190;4.440;2023-05-19T05:00:38;102875.13;;;9.10;100.00
69318;BME280;56457;52.190;4.440;2023-05-19T05:01:38;102882.25;;;9.14;100.00
69318;BME280;56457;52.190;4.440;2023-05-19T05:02:40;102883.22;;;9.17;100.00
69318;BME280;56457;52.190;4.440;2023-05-19T05:03:41;102884.09;;;9.18;100.00
69318;BME280;56457;52.190;4.440;2023-05-19T05:04:42;102887.56;;;9.17;100.00
69318;BME280;56457;52.190;4.440;2023-05-19T05:05:43;102883.31;;;9.21;100.00
69318;BME280;56457;52.190;4.440;2023-05-19T05:06:43;102881.63;;;9.23;100.00
69318;BME280;56457;52.190;4.440;2023-05-19T05:07:47;102883.38;;;9.22;100.00
69318;BME280;56457;52.190;4.440;2023-05-19T05:08:48;102892.09;;;9.23;100.00
69318;BME280;56457;52.190;4.440;2023-05-19T05:09:49;102884.38;;;9.26;100.00
69318;BME280;56457;52.190;4.440;2023-05-19T05:10:49;102881.06;;;9.33;100.00
69318;BME280;56457;52.190;4.440;2023-05-19T05:11:51;102884.63;;;9.35;100.00
69318;BME280;56457;52.190;4.440;2023-05-19T05:12:52;102883.03;;;9.40;100.00
69318;BME280;56457;52.190;4.440;2023-05-19T05:13:52;102891.06;;;9.46;100.00
69318;BME280;56457;52.190;4.440;2023-05-19T05:14:52;102887.53;;;9.44;100.00
69318;BME280;56457;52.190;4.440;2023-05-19T05:15:53;102881.50;;;9.48;100.00
69318;BME280;56457;52.190;4.440;2023-05-19T05:16:55;102887.69;;;9.50;100.00
69318;BME280;56457;52.190;4.440;2023-05-19T05:17:55;102890.28;;;9.50;100.00
69318;BME280;56457;52.190;4.440;2023-05-19T05:18:56;102882.63;;;9.56;100.00
69318;BME280;56457;52.190;4.440;2023-05-19T05:19:56;102882.78;;;9.62;100.00
69318;BME280;56457;52.190;4.440;2023-05-19T05:20:57;102883.03;;;9.70;100.00
69318;BME280;56457;52.190;4.440;2023-05-19T05:21:57;102893.63;;;9.75;100.00
69318;BME280;56457;52.190;4.440;2023-05-19T05:22:58;102891.13;;;9.79;100.00
69318;BME280;56457;52.190;4.440;2023-05-19T05:23:58;102889.22;;;9.74;100.00
69318;BME280;56457;52.190;4.440;2023-05-19T05:24:59;102888.31;;;9.71;100.00
69318;BME280;56457;52.190;4.440;2023-05-19T05:26:00;102897.16;;;9.75;100.00
69318;BME280;56457;52.190;4.440;2023-05-19T05:27:04;102892.00;;;9.78;100.00
69318;BME280;56457;52.190;4.440;2023-05-19T05:28:05;102895.59;;;9.82;100.00
69318;BME280;56457;52.190;4.440;2023-05-19T05:29:06;102892.19;;;9.86;100.00
69318;BME280;56457;52.190;4.440;2023-05-19T05:30:07;102894.91;;;9.89;100.00
69318;BME280;56457;52.190;4.440;2023-05-19T05:31:07;102898.47;;;9.91;100.00
69318;BME280;56457;52.190;4.440;2023-05-19T05:32:07;102898.56;;;9.94;100.00
69318;BME280;56457;52.190;4.440;2023-05-19T05:33:08;102901.28;;;9.98;100.00
69318;BME280;56457;52.190;4.440;2023-05-19T05:34:08;102891.75;;;10.01;100.00
69318;BME280;56457;52.190;4.440;2023-05-19T05:35:09;102891.78;;;10.02;100.00
69318;BME280;56457;52.190;4.440;2023-05-19T05:36:09;102886.69;;;10.08;100.00
69318;BME280;56457;52.190;4.440;2023-05-19T05:37:10;102884.25;;;10.14;100.00
69318;BME280;56457;52.190;4.440;2023-05-19T05:38:10;102886.94;;;10.17;100.00
69318;BME280;56457;52.190;4.440;2023-05-19T05:39:10;102880.81;;;10.17;100.00
69318;BME280;56457;52.190;4.440;2023-05-19T05:40:11;102886.94;;;10.17;100.00
69318;BME280;56457;52.190;4.440;2023-05-19T05:41:11;102879.16;;;10.20;100.00
69318;BME280;56457;52.190;4.440;2023-05-19T05:42:11;102883.63;;;10.23;100.00
69318;BME280;56457;52.190;4.440;2023-05-19T05:43:12;102881.88;;;10.23;100.00